Time;durP1;ratioP1;P1;durP2;ratioP2;P2;SDS_P1;SDS_P2;PMS_P1;PMS_P2;Temp;Humidity;BMP_temperature;BMP_pressure;BME280_temperature;BME280_humidity;BME280_pressure;Samples;Min_cycle;Max_cycle;Signal;HPM_P1;HPM_P2
2022/01/30 00:00:44;;;;;;;1.30;1.30;;;;;;;;;;5089764;28;20483;-80
2022/01/30 00:03:11;;;;;;;1.20;1.20;;;;;;;;;;5096971;28;20467;-79
2022/01/30 00:05:38;;;;;;;1.30;1.30;;;;;;;;;;5098710;28;20422;-80
2022/01/30 00:08:05;;;;;;;1.23;1.23;;;;;;;;;;5080519;28;20854;-80
2022/01/30 00:10:38;;;;;;;1.57;1.50;;;;;;;;;;5074855;28;20437;-79
2022/01/30 00:13:07;;;;;;;1.40;1.30;;;;;;;;;;5074657;28;20464;-79
2022/01/30 00:15:39;;;;;;;1.37;1.27;;;;;;;;;;5074657;28;20502;-80
2022/01/30 00:18:15;;;;;;;1.47;1.37;;;;;;;;;;5074584;28;20480;-80
2022/01/30 00:20:55;;;;;;;1.23;1.23;;;;;;;;;;5075156;28;20468;-80
2022/01/30 00:23:26;;;;;;;1.20;1.20;;;;;;;;;;5074553;28;20449;-81
2022/01/30 00:25:56;;;;;;;1.20;1.20;;;;;;;;;;5074873;28;20481;-79
2022/01/30 00:28:25;;;;;;;1.37;1.33;;;;;;;;;;5074582;28;20852;-80
2022/01/30 00:30:52;;;;;;;1.27;1.27;;;;;;;;;;5074745;28;20440;-81
2022/01/30 00:33:19;;;;;;;1.70;1.60;;;;;;;;;;5074380;28;20498;-81
2022/01/30 00:35:46;;;;;;;1.40;1.40;;;;;;;;;;5074426;28;20456;-80
2022/01/30 00:38:18;;;;;;;1.10;1.10;;;;;;;;;;5074465;28;20450;-80
2022/01/30 00:40:45;;;;;;;1.43;1.43;;;;;;;;;;5074542;28;20469;-81
2022/01/30 00:43:14;;;;;;;1.33;1.33;;;;;;;;;;5074397;28;20445;-80
2022/01/30 00:45:42;;;;;;;1.40;1.40;;;;;;;;;;5072247;28;20445;-81
2022/01/30 00:48:09;;;;;;;1.33;1.23;;;;;;;;;;5065472;28;20972;-80
2022/01/30 00:50:36;;;;;;;1.50;1.50;;;;;;;;;;5073926;28;20437;-82
2022/01/30 00:53:03;;;;;;;2.00;1.90;;;;;;;;;;5065003;28;20446;-80
2022/01/30 00:55:31;;;;;;;1.80;1.50;;;;;;;;;;5074098;28;20924;-81
2022/01/30 00:57:59;;;;;;;1.30;1.30;;;;;;;;;;5066647;28;20445;-80
2022/01/30 01:00:28;;;;;;;1.47;1.37;;;;;;;;;;5074680;28;20444;-81
2022/01/30 01:02:55;;;;;;;1.30;1.20;;;;;;;;;;5074091;28;20451;-81
2022/01/30 01:05:22;;;;;;;1.73;1.63;;;;;;;;;;5075328;28;20444;-80
2022/01/30 01:07:51;;;;;;;2.40;1.47;;;;;;;;;;5074620;28;20508;-80
2022/01/30 01:10:28;;;;;;;1.40;1.30;;;;;;;;;;5074618;28;20453;-80
2022/01/30 01:13:13;;;;;;;1.53;1.50;;;;;;;;;;5073364;28;20449;-81
2022/01/30 01:23:59;;;;;;;1.50;1.40;;;;;;;;;;5072761;28;20425;-81
2022/01/30 01:26:26;;;;;;;1.70;1.43;;;;;;;;;;5073545;28;20538;-81
2022/01/30 01:28:54;;;;;;;1.87;1.77;;;;;;;;;;5073385;28;20968;-80
2022/01/30 01:31:22;;;;;;;1.57;1.53;;;;;;;;;;5073609;28;21003;-81
2022/01/30 01:34:04;;;;;;;2.60;2.03;;;;;;;;;;5072831;28;20429;-80
2022/01/30 01:36:31;;;;;;;1.90;1.80;;;;;;;;;;5073173;28;20548;-79
2022/01/30 01:38:58;;;;;;;1.60;1.50;;;;;;;;;;5066708;28;20469;-80
2022/01/30 01:41:26;;;;;;;1.60;1.50;;;;;;;;;;5070516;28;20465;-80
2022/01/30 01:43:54;;;;;;;1.47;1.37;;;;;;;;;;5070085;28;20922;-81
2022/01/30 01:46:25;;;;;;;2.00;1.90;;;;;;;;;;5052972;28;20458;-81
2022/01/30 01:48:53;;;;;;;1.57;1.50;;;;;;;;;;5053189;28;20902;-81
2022/01/30 01:51:22;;;;;;;2.23;1.77;;;;;;;;;;5053116;28;20446;-81
2022/01/30 01:53:52;;;;;;;2.07;1.97;;;;;;;;;;5052952;28;20532;-79
2022/01/30 01:56:19;;;;;;;1.80;1.70;;;;;;;;;;5053347;28;20434;-81
2022/01/30 01:58:47;;;;;;;1.40;1.40;;;;;;;;;;5052677;28;20477;-81
2022/01/30 02:01:14;;;;;;;2.20;2.00;;;;;;;;;;5052720;28;20527;-79
2022/01/30 02:03:43;;;;;;;1.90;1.80;;;;;;;;;;5059858;28;20441;-81
2022/01/30 02:06:14;;;;;;;2.00;1.80;;;;;;;;;;5073709;28;20441;-80
2022/01/30 02:08:43;;;;;;;3.50;2.17;;;;;;;;;;5073416;28;20480;-82
2022/01/30 02:11:14;;;;;;;1.53;1.43;;;;;;;;;;5073440;28;20489;-80
2022/01/30 02:14:13;;;;;;;1.50;1.40;;;;;;;;;;5072545;28;20472;-81
2022/01/30 02:25:11;;;;;;;1.97;1.20;;;;;;;;;;5076907;28;20424;-81
2022/01/30 02:27:39;;;;;;;1.17;1.17;;;;;;;;;;5077350;28;20441;-79
2022/01/30 02:30:09;;;;;;;1.00;1.00;;;;;;;;;;5078900;28;20464;-81
2022/01/30 02:32:36;;;;;;;1.30;1.30;;;;;;;;;;5089059;28;20505;-79
2022/01/30 02:35:04;;;;;;;1.10;1.10;;;;;;;;;;5092472;28;20441;-78
2022/01/30 02:37:32;;;;;;;1.17;1.10;;;;;;;;;;5091468;28;20884;-79
2022/01/30 02:39:59;;;;;;;1.40;1.30;;;;;;;;;;5092954;28;20453;-81
2022/01/30 02:42:31;;;;;;;1.20;1.20;;;;;;;;;;5073097;28;21094;-79
2022/01/30 02:45:01;;;;;;;4.07;1.40;;;;;;;;;;5069258;28;20467;-80
2022/01/30 02:47:41;;;;;;;1.13;1.00;;;;;;;;;;5077994;28;20499;-80
2022/01/30 02:50:14;;;;;;;1.27;1.27;;;;;;;;;;5076827;28;20449;-81
2022/01/30 02:52:44;;;;;;;1.67;1.60;;;;;;;;;;5076380;28;20437;-80
2022/01/30 02:55:12;;;;;;;1.80;1.70;;;;;;;;;;5076512;28;20477;-79
2022/01/30 02:57:39;;;;;;;2.00;1.90;;;;;;;;;;5088506;28;20429;-79
2022/01/30 03:00:07;;;;;;;2.10;2.00;;;;;;;;;;5099920;28;20456;-80
2022/01/30 03:02:34;;;;;;;2.40;2.30;;;;;;;;;;5099563;28;20492;-79
2022/01/30 03:05:01;;;;;;;2.23;2.03;;;;;;;;;;5089383;28;20437;-80
2022/01/30 03:07:28;;;;;;;2.77;2.40;;;;;;;;;;5077188;28;20498;-79
2022/01/30 03:09:57;;;;;;;2.27;2.17;;;;;;;;;;5076902;28;20473;-79
2022/01/30 03:12:24;;;;;;;2.50;2.27;;;;;;;;;;5076541;28;20471;-80
2022/01/30 03:14:51;;;;;;;1.80;1.70;;;;;;;;;;5075980;28;20965;-79
2022/01/30 03:17:18;;;;;;;2.30;2.20;;;;;;;;;;5075950;28;20445;-81
2022/01/30 03:19:45;;;;;;;2.13;1.93;;;;;;;;;;5075534;28;20468;-81
2022/01/30 03:22:12;;;;;;;3.73;1.77;;;;;;;;;;5075534;28;21003;-79
2022/01/30 03:24:39;;;;;;;1.80;1.70;;;;;;;;;;5074974;28;20448;-79
2022/01/30 03:27:10;;;;;;;6.77;2.40;;;;;;;;;;5074050;28;20433;-81
2022/01/30 03:29:38;;;;;;;2.90;2.70;;;;;;;;;;5074162;28;20598;-80
2022/01/30 03:32:06;;;;;;;1.87;1.77;;;;;;;;;;5073926;28;20483;-79
2022/01/30 03:34:33;;;;;;;2.30;2.20;;;;;;;;;;5073341;28;20832;-80
2022/01/30 03:37:00;;;;;;;1.83;1.73;;;;;;;;;;5075068;28;20527;-78
2022/01/30 03:39:27;;;;;;;1.60;1.60;;;;;;;;;;5074957;28;20542;-81
2022/01/30 03:41:54;;;;;;;2.37;1.83;;;;;;;;;;5076065;28;21032;-79
2022/01/30 03:44:22;;;;;;;2.10;1.37;;;;;;;;;;5078467;28;20449;-79
2022/01/30 03:46:49;;;;;;;3.30;2.23;;;;;;;;;;5078255;28;20452;-79
2022/01/30 03:49:16;;;;;;;1.50;1.40;;;;;;;;;;5074617;28;20486;-79
2022/01/30 03:51:43;;;;;;;1.63;1.40;;;;;;;;;;5072902;28;20945;-79
2022/01/30 03:54:10;;;;;;;1.63;1.53;;;;;;;;;;5072565;28;20449;-80
2022/01/30 03:56:37;;;;;;;2.30;1.93;;;;;;;;;;5072649;28;20441;-80
2022/01/30 03:59:04;;;;;;;2.03;1.90;;;;;;;;;;5072188;28;20456;-80
2022/01/30 04:01:33;;;;;;;2.33;2.03;;;;;;;;;;5072757;28;20484;-80
2022/01/30 04:04:00;;;;;;;2.50;2.20;;;;;;;;;;5062330;28;20445;-80
2022/01/30 04:06:28;;;;;;;4.03;2.40;;;;;;;;;;5052653;28;20454;-81
2022/01/30 04:08:55;;;;;;;2.87;2.57;;;;;;;;;;5052189;28;20466;-80
2022/01/30 04:11:22;;;;;;;4.83;2.63;;;;;;;;;;5052093;28;20500;-79
2022/01/30 04:13:49;;;;;;;4.70;2.80;;;;;;;;;;5051796;28;20524;-79
2022/01/30 04:16:17;;;;;;;2.60;2.30;;;;;;;;;;5051444;28;21021;-79
2022/01/30 04:18:45;;;;;;;2.50;2.30;;;;;;;;;;5052106;28;20541;-80
2022/01/30 04:21:12;;;;;;;4.90;2.77;;;;;;;;;;5052140;28;20442;-80
2022/01/30 04:23:40;;;;;;;3.30;3.00;;;;;;;;;;5052263;28;20449;-81
2022/01/30 04:26:07;;;;;;;3.53;2.53;;;;;;;;;;5051573;28;20528;-81
2022/01/30 04:28:34;;;;;;;4.40;3.10;;;;;;;;;;5053356;28;20473;-78
2022/01/30 04:31:02;;;;;;;4.50;3.70;;;;;;;;;;5052953;28;20464;-79
2022/01/30 04:33:29;;;;;;;3.23;2.97;;;;;;;;;;5053496;28;20445;-79
2022/01/30 04:36:00;;;;;;;3.30;3.10;;;;;;;;;;5053589;28;20462;-79
2022/01/30 04:38:34;;;;;;;5.03;2.90;;;;;;;;;;5053838;28;20470;-79
2022/01/30 04:41:22;;;;;;;3.30;2.80;;;;;;;;;;5053460;28;20534;-79
2022/01/30 04:52:28;;;;;;;5.93;3.70;;;;;;;;;;5053835;28;20421;-80
2022/01/30 04:57:59;;;;;;;12.30;4.40;;;;;;;;;;5053548;28;20429;-78
2022/01/30 05:00:36;;;;;;;5.37;3.40;;;;;;;;;;5053321;28;20488;-78
2022/01/30 05:03:23;;;;;;;6.87;4.70;;;;;;;;;;5054282;28;20480;-80
2022/01/30 05:05:59;;;;;;;5.53;4.40;;;;;;;;;;5072356;28;20533;-80
2022/01/30 05:08:28;;;;;;;7.23;3.30;;;;;;;;;;5072719;28;20506;-80
2022/01/30 05:10:55;;;;;;;3.63;2.90;;;;;;;;;;5073364;28;20441;-79
2022/01/30 05:13:25;;;;;;;5.53;3.47;;;;;;;;;;5071126;28;20503;-80
2022/01/30 05:15:52;;;;;;;7.10;4.00;;;;;;;;;;5070691;28;20863;-79
2022/01/30 05:18:20;;;;;;;6.60;4.00;;;;;;;;;;5070455;28;20480;-79
2022/01/30 05:20:48;;;;;;;4.93;3.17;;;;;;;;;;5070060;28;20447;-80
2022/01/30 05:23:16;;;;;;;7.30;3.73;;;;;;;;;;5069904;28;20476;-79
2022/01/30 05:25:45;;;;;;;6.77;3.80;;;;;;;;;;5069243;28;20456;-81
2022/01/30 05:28:12;;;;;;;10.53;4.20;;;;;;;;;;5064741;28;20466;-81
2022/01/30 05:30:40;;;;;;;8.37;3.80;;;;;;;;;;5067889;28;20445;-81
2022/01/30 05:33:07;;;;;;;8.23;3.67;;;;;;;;;;5069903;28;20944;-79
2022/01/30 05:35:35;;;;;;;6.70;4.07;;;;;;;;;;5061460;28;20508;-81
2022/01/30 05:38:03;;;;;;;8.93;4.57;;;;;;;;;;5050423;28;20446;-80
2022/01/30 05:40:31;;;;;;;8.40;4.00;;;;;;;;;;5050131;28;20941;-79
2022/01/30 05:43:00;;;;;;;6.23;3.90;;;;;;;;;;5063816;28;20481;-80
2022/01/30 05:45:31;;;;;;;9.13;4.60;;;;;;;;;;5054081;28;20453;-81
2022/01/30 05:48:03;;;;;;;7.70;4.33;;;;;;;;;;5051842;28;20454;-80
2022/01/30 05:50:30;;;;;;;7.80;4.50;;;;;;;;;;5052189;28;20523;-80
2022/01/30 05:52:57;;;;;;;10.20;4.60;;;;;;;;;;5050933;28;20442;-80
2022/01/30 05:55:24;;;;;;;9.93;4.30;;;;;;;;;;5050782;28;20461;-81
2022/01/30 05:57:51;;;;;;;6.27;4.43;;;;;;;;;;5051006;28;20438;-80
2022/01/30 06:00:20;;;;;;;13.53;4.47;;;;;;;;;;5051585;28;20453;-79
2022/01/30 06:02:47;;;;;;;5.80;4.43;;;;;;;;;;5051053;28;20477;-80
2022/01/30 06:05:16;;;;;;;7.10;3.93;;;;;;;;;;5071540;28;20927;-80
2022/01/30 06:07:50;;;;;;;5.60;4.00;;;;;;;;;;5071992;28;20441;-80
2022/01/30 06:10:17;;;;;;;8.57;4.23;;;;;;;;;;5074182;28;20445;-78
2022/01/30 06:12:44;;;;;;;11.37;4.40;;;;;;;;;;5070591;28;20445;-80
2022/01/30 06:15:13;;;;;;;5.93;4.17;;;;;;;;;;5075601;28;20963;-80
2022/01/30 06:17:41;;;;;;;6.80;3.70;;;;;;;;;;5073053;28;20493;-80
2022/01/30 06:20:09;;;;;;;7.40;3.70;;;;;;;;;;5073092;28;20446;-80
2022/01/30 06:22:36;;;;;;;10.70;4.50;;;;;;;;;;5071068;28;20488;-79
2022/01/30 06:25:03;;;;;;;12.53;4.00;;;;;;;;;;5069467;28;21005;-80
2022/01/30 06:27:30;;;;;;;9.20;4.93;;;;;;;;;;5070304;28;20873;-80
2022/01/30 06:29:57;;;;;;;10.63;4.20;;;;;;;;;;5071429;28;20980;-80
2022/01/30 06:32:24;;;;;;;4.43;3.40;;;;;;;;;;5070345;28;20917;-81
2022/01/30 06:34:52;;;;;;;5.90;4.63;;;;;;;;;;5069839;28;20449;-81
2022/01/30 06:37:19;;;;;;;6.03;3.63;;;;;;;;;;5070451;28;20668;-80
2022/01/30 06:39:46;;;;;;;7.20;3.70;;;;;;;;;;5071420;28;20473;-79
2022/01/30 06:42:13;;;;;;;6.93;3.80;;;;;;;;;;5071200;28;20461;-79
2022/01/30 06:44:43;;;;;;;7.93;4.30;;;;;;;;;;5072402;28;20443;-79
2022/01/30 06:47:10;;;;;;;8.17;4.10;;;;;;;;;;5073975;28;20445;-80
2022/01/30 06:49:37;;;;;;;5.80;3.40;;;;;;;;;;5074993;28;20468;-78
2022/01/30 06:52:09;;;;;;;5.70;3.67;;;;;;;;;;5073393;28;20445;-78
2022/01/30 06:54:36;;;;;;;7.60;3.83;;;;;;;;;;5074027;28;20445;-79
2022/01/30 06:57:03;;;;;;;10.90;3.90;;;;;;;;;;5073526;28;20425;-79
2022/01/30 06:59:30;;;;;;;4.93;3.87;;;;;;;;;;5073928;28;20853;-81
2022/01/30 07:01:57;;;;;;;6.07;3.90;;;;;;;;;;5074644;28;20495;-78
2022/01/30 07:04:24;;;;;;;8.70;3.70;;;;;;;;;;5073893;28;20477;-80
2022/01/30 07:06:51;;;;;;;5.10;3.70;;;;;;;;;;5077952;28;21113;-79
2022/01/30 07:09:19;;;;;;;7.57;3.53;;;;;;;;;;5077829;28;20445;-80
2022/01/30 07:11:47;;;;;;;7.23;4.37;;;;;;;;;;5077047;28;20483;-80
2022/01/30 07:14:14;;;;;;;8.07;3.90;;;;;;;;;;5078586;28;20449;-79
2022/01/30 07:16:41;;;;;;;7.40;3.63;;;;;;;;;;5089483;28;20433;-78
2022/01/30 07:19:08;;;;;;;8.93;4.10;;;;;;;;;;5091549;28;20479;-76
2022/01/30 07:21:35;;;;;;;6.67;4.53;;;;;;;;;;5097606;28;20483;-77
2022/01/30 07:24:02;;;;;;;11.00;3.90;;;;;;;;;;5075973;28;20474;-77
2022/01/30 07:26:32;;;;;;;8.13;4.20;;;;;;;;;;5090161;28;20417;-78
2022/01/30 07:28:59;;;;;;;8.20;4.50;;;;;;;;;;5090815;28;20465;-80
2022/01/30 07:31:26;;;;;;;8.77;4.83;;;;;;;;;;5078823;28;20452;-79
2022/01/30 07:33:53;;;;;;;10.43;5.37;;;;;;;;;;5079748;28;20456;-79
2022/01/30 07:36:20;;;;;;;12.33;4.97;;;;;;;;;;5080601;28;20980;-79
2022/01/30 07:38:47;;;;;;;10.13;4.13;;;;;;;;;;5075642;28;20468;-79
2022/01/30 07:41:14;;;;;;;8.03;4.40;;;;;;;;;;5074246;28;20460;-79
2022/01/30 07:43:42;;;;;;;10.87;4.53;;;;;;;;;;5073120;28;21055;-80
2022/01/30 07:46:09;;;;;;;7.90;4.33;;;;;;;;;;5074517;28;20489;-81
2022/01/30 07:48:36;;;;;;;7.63;4.30;;;;;;;;;;5073197;28;20461;-80
2022/01/30 07:51:03;;;;;;;8.33;4.90;;;;;;;;;;5074341;28;20796;-80
2022/01/30 07:53:31;;;;;;;14.83;5.33;;;;;;;;;;5078082;28;20460;-79
2022/01/30 07:55:58;;;;;;;8.27;5.10;;;;;;;;;;5075767;28;20437;-80
2022/01/30 07:58:25;;;;;;;9.23;4.70;;;;;;;;;;5075342;28;20492;-79
2022/01/30 08:00:54;;;;;;;9.10;4.70;;;;;;;;;;5076256;28;20852;-79
2022/01/30 08:03:22;;;;;;;13.57;5.47;;;;;;;;;;5073055;28;20488;-80
2022/01/30 08:05:49;;;;;;;12.33;5.23;;;;;;;;;;5073730;28;20536;-79
2022/01/30 08:08:16;;;;;;;11.10;5.93;;;;;;;;;;5076911;28;20964;-79
2022/01/30 08:10:43;;;;;;;13.40;4.80;;;;;;;;;;5071305;28;20937;-80
2022/01/30 08:13:10;;;;;;;8.47;5.03;;;;;;;;;;5074884;28;20441;-80
2022/01/30 08:15:37;;;;;;;10.17;4.67;;;;;;;;;;5067181;28;20545;-79
2022/01/30 08:18:06;;;;;;;8.87;4.50;;;;;;;;;;5054960;28;20457;-81
2022/01/30 08:20:33;;;;;;;5.80;4.30;;;;;;;;;;5054841;28;20441;-79
2022/01/30 08:23:06;;;;;;;7.13;3.93;;;;;;;;;;5055614;28;20477;-78
2022/01/30 08:25:34;;;;;;;11.27;4.30;;;;;;;;;;5057280;28;20472;-80
2022/01/30 08:28:01;;;;;;;8.07;4.37;;;;;;;;;;5058448;28;20441;-81
2022/01/30 08:30:28;;;;;;;10.00;4.33;;;;;;;;;;5053480;28;20795;-80
2022/01/30 08:32:55;;;;;;;8.00;4.30;;;;;;;;;;5053519;28;20439;-80
2022/01/30 08:35:24;;;;;;;7.20;3.90;;;;;;;;;;5056246;28;20465;-79
2022/01/30 08:37:51;;;;;;;6.37;3.87;;;;;;;;;;5055807;28;20457;-79
2022/01/30 08:40:19;;;;;;;10.30;4.20;;;;;;;;;;5056454;28;20442;-79
2022/01/30 08:42:46;;;;;;;10.93;4.30;;;;;;;;;;5056165;28;20466;-78
2022/01/30 08:45:14;;;;;;;8.80;3.60;;;;;;;;;;5053878;28;20426;-81
2022/01/30 08:47:41;;;;;;;8.50;3.97;;;;;;;;;;5055725;28;20596;-79
2022/01/30 08:50:09;;;;;;;10.33;4.03;;;;;;;;;;5056131;28;20486;-79
2022/01/30 08:52:37;;;;;;;10.90;3.60;;;;;;;;;;5055272;28;20450;-79
2022/01/30 08:55:05;;;;;;;7.90;4.10;;;;;;;;;;5055142;28;20472;-79
2022/01/30 08:57:32;;;;;;;7.33;4.20;;;;;;;;;;5068193;28;20449;-81
2022/01/30 08:59:59;;;;;;;9.20;4.03;;;;;;;;;;5064645;28;20470;-80
2022/01/30 09:02:27;;;;;;;11.33;4.40;;;;;;;;;;5056518;28;20437;-81
2022/01/30 09:04:54;;;;;;;10.13;4.33;;;;;;;;;;5068284;28;20485;-83
2022/01/30 09:07:21;;;;;;;10.30;3.93;;;;;;;;;;5073233;28;20449;-78
2022/01/30 09:09:49;;;;;;;10.17;4.40;;;;;;;;;;5075702;28;20518;-80
2022/01/30 09:12:16;;;;;;;9.20;3.83;;;;;;;;;;5076037;28;20506;-80
2022/01/30 09:14:43;;;;;;;9.67;3.90;;;;;;;;;;5076157;28;20452;-79
2022/01/30 09:17:13;;;;;;;6.70;3.90;;;;;;;;;;5076265;28;20472;-79
2022/01/30 09:19:41;;;;;;;12.83;4.47;;;;;;;;;;5073736;28;20505;-79
2022/01/30 09:22:09;;;;;;;11.20;3.83;;;;;;;;;;5066894;28;20453;-77
2022/01/30 09:24:36;;;;;;;10.83;4.03;;;;;;;;;;5082069;28;20531;-77
2022/01/30 09:27:05;;;;;;;9.80;4.00;;;;;;;;;;5071612;28;20496;-78
2022/01/30 09:29:32;;;;;;;15.80;8.20;;;;;;;;;;5065693;28;20450;-77
2022/01/30 09:31:59;;;;;;;8.50;4.03;;;;;;;;;;5064755;28;20460;-78
2022/01/30 09:34:26;;;;;;;12.07;4.03;;;;;;;;;;5056420;28;20430;-78
2022/01/30 09:36:53;;;;;;;9.07;3.50;;;;;;;;;;5053100;28;20461;-78
2022/01/30 09:39:20;;;;;;;9.93;3.27;;;;;;;;;;5052121;28;20469;-79
2022/01/30 09:41:50;;;;;;;8.27;3.80;;;;;;;;;;5052410;28;20450;-78
2022/01/30 09:44:18;;;;;;;9.00;5.43;;;;;;;;;;5052800;28;20482;-78
2022/01/30 09:46:46;;;;;;;13.33;4.30;;;;;;;;;;5055356;28;20446;-77
2022/01/30 09:49:13;;;;;;;9.93;4.57;;;;;;;;;;5072552;28;20869;-78
2022/01/30 09:51:42;;;;;;;11.80;4.10;;;;;;;;;;5066620;28;20446;-79
2022/01/30 09:54:10;;;;;;;6.37;4.33;;;;;;;;;;5071358;28;20464;-78
2022/01/30 09:56:37;;;;;;;10.23;4.40;;;;;;;;;;5072452;28;20441;-77
2022/01/30 09:59:04;;;;;;;8.67;4.10;;;;;;;;;;5071908;28;20468;-79
2022/01/30 10:01:34;;;;;;;7.40;3.27;;;;;;;;;;5072953;28;20441;-77
2022/01/30 10:04:01;;;;;;;8.47;4.00;;;;;;;;;;5071968;28;20480;-79
2022/01/30 10:06:33;;;;;;;5.37;4.03;;;;;;;;;;5071877;28;20437;-77
2022/01/30 10:09:10;;;;;;;10.63;5.30;;;;;;;;;;5072712;28;20449;-78
2022/01/30 10:11:47;;;;;;;8.63;4.10;;;;;;;;;;5072430;28;20970;-79
2022/01/30 10:14:15;;;;;;;10.20;3.90;;;;;;;;;;5071016;28;20915;-77
2022/01/30 10:16:45;;;;;;;11.63;4.10;;;;;;;;;;5067861;28;20470;-78
2022/01/30 10:19:13;;;;;;;10.10;4.07;;;;;;;;;;5074364;28;20925;-79
2022/01/30 10:21:40;;;;;;;9.60;4.60;;;;;;;;;;5074983;28;20993;-78
2022/01/30 10:24:24;;;;;;;8.53;4.43;;;;;;;;;;5073120;28;20484;-79
2022/01/30 10:26:51;;;;;;;7.50;3.90;;;;;;;;;;5074708;28;20445;-78
2022/01/30 10:29:19;;;;;;;11.10;4.30;;;;;;;;;;5072130;28;20472;-78
2022/01/30 10:31:59;;;;;;;8.17;3.20;;;;;;;;;;5063953;28;20453;-77
2022/01/30 10:34:26;;;;;;;8.13;3.23;;;;;;;;;;5070045;28;20445;-77
2022/01/30 10:37:11;;;;;;;5.80;3.50;;;;;;;;;;5051969;28;20472;-77
2022/01/30 10:39:53;;;;;;;7.53;2.80;;;;;;;;;;5052533;28;20886;-78
2022/01/30 10:42:30;;;;;;;10.00;3.43;;;;;;;;;;5055860;28;20809;-78
2022/01/30 10:44:57;;;;;;;8.70;3.43;;;;;;;;;;5055711;28;20489;-77
2022/01/30 10:47:25;;;;;;;8.13;3.13;;;;;;;;;;5055694;28;20456;-77
2022/01/30 10:49:53;;;;;;;13.40;4.00;;;;;;;;;;5056264;28;20470;-77
2022/01/30 10:52:20;;;;;;;6.00;3.37;;;;;;;;;;5056558;28;20434;-77
2022/01/30 10:54:50;;;;;;;12.90;4.03;;;;;;;;;;5055756;28;20434;-78
2022/01/30 10:57:17;;;;;;;8.53;3.10;;;;;;;;;;5056548;28;20449;-78
2022/01/30 10:59:52;;;;;;;6.57;3.50;;;;;;;;;;5055266;28;20458;-79
2022/01/30 11:02:20;;;;;;;10.87;3.73;;;;;;;;;;5055552;28;20445;-77
2022/01/30 11:04:49;;;;;;;9.63;4.30;;;;;;;;;;5054897;28;20473;-77
2022/01/30 11:07:19;;;;;;;8.90;3.77;;;;;;;;;;5055248;28;21037;-76
2022/01/30 11:09:56;;;;;;;12.03;4.00;;;;;;;;;;5056306;28;20469;-78
2022/01/30 11:12:33;;;;;;;8.50;3.53;;;;;;;;;;5054964;28;20916;-77
2022/01/30 11:15:16;;;;;;;6.37;3.10;;;;;;;;;;5055275;28;20438;-78
2022/01/30 11:17:44;;;;;;;6.67;4.43;;;;;;;;;;5056094;28;20458;-77
2022/01/30 11:20:14;;;;;;;9.90;3.63;;;;;;;;;;5056498;28;20537;-78
2022/01/30 11:22:43;;;;;;;5.87;4.00;;;;;;;;;;5056399;28;20444;-77
2022/01/30 11:25:12;;;;;;;7.37;3.30;;;;;;;;;;5055410;28;20575;-79
2022/01/30 11:27:41;;;;;;;8.13;3.50;;;;;;;;;;5055917;28;20446;-77
2022/01/30 11:30:09;;;;;;;6.20;3.20;;;;;;;;;;5055508;28;20450;-78
2022/01/30 11:32:36;;;;;;;11.10;3.50;;;;;;;;;;5055030;28;20450;-79
2022/01/30 11:35:04;;;;;;;6.37;3.80;;;;;;;;;;5055410;28;20442;-77
2022/01/30 11:37:33;;;;;;;9.20;3.60;;;;;;;;;;5055296;28;20458;-77
2022/01/30 11:40:02;;;;;;;7.50;3.63;;;;;;;;;;5055354;28;20468;-78
2022/01/30 11:42:39;;;;;;;7.60;3.27;;;;;;;;;;5055591;28;20465;-76
2022/01/30 11:45:15;;;;;;;10.93;3.87;;;;;;;;;;5054726;28;20560;-77
2022/01/30 11:47:46;;;;;;;12.37;3.50;;;;;;;;;;5054809;28;20441;-78
2022/01/30 11:50:14;;;;;;;9.57;3.83;;;;;;;;;;5070491;28;20449;-78
2022/01/30 11:52:53;;;;;;;9.07;4.00;;;;;;;;;;5073121;28;20444;-78
2022/01/30 11:55:38;;;;;;;10.17;4.07;;;;;;;;;;5057575;28;20426;-77
2022/01/30 11:58:06;;;;;;;7.60;3.63;;;;;;;;;;5054930;28;20503;-79
2022/01/30 12:00:37;;;;;;;10.23;3.90;;;;;;;;;;5056090;28;20442;-78
2022/01/30 12:03:22;;;;;;;7.33;3.20;;;;;;;;;;5057015;28;20450;-78
2022/01/30 12:05:49;;;;;;;9.97;4.03;;;;;;;;;;5074366;28;20473;-77
2022/01/30 12:08:31;;;;;;;9.87;3.20;;;;;;;;;;5073724;28;20523;-78
2022/01/30 12:10:59;;;;;;;7.40;3.37;;;;;;;;;;5073866;28;20437;-77
2022/01/30 12:13:41;;;;;;;11.17;3.70;;;;;;;;;;5073671;28;20449;-77
2022/01/30 12:16:08;;;;;;;9.17;3.80;;;;;;;;;;5073877;28;20434;-76
2022/01/30 12:18:46;;;;;;;11.30;4.20;;;;;;;;;;5074770;28;20514;-77
2022/01/30 12:21:16;;;;;;;5.50;2.93;;;;;;;;;;5074233;28;20445;-78
2022/01/30 12:23:45;;;;;;;7.10;3.40;;;;;;;;;;5073296;28;20954;-77
2022/01/30 12:26:15;;;;;;;6.87;3.47;;;;;;;;;;5074613;28;20952;-78
2022/01/30 12:28:42;;;;;;;11.00;4.07;;;;;;;;;;5074905;28;20884;-80
2022/01/30 12:31:26;;;;;;;6.30;3.40;;;;;;;;;;5075379;28;20820;-79
2022/01/30 12:34:00;;;;;;;6.77;3.53;;;;;;;;;;5074476;28;20481;-77
2022/01/30 12:36:27;;;;;;;9.10;3.40;;;;;;;;;;5074249;28;20506;-78
2022/01/30 12:38:55;;;;;;;12.33;4.40;;;;;;;;;;5073679;28;20465;-79
2022/01/30 12:41:24;;;;;;;13.20;4.10;;;;;;;;;;5073612;28;20445;-79
2022/01/30 12:43:55;;;;;;;8.73;3.63;;;;;;;;;;5073874;28;20502;-78
2022/01/30 12:46:24;;;;;;;8.97;3.13;;;;;;;;;;5074146;28;20539;-78
2022/01/30 12:49:05;;;;;;;7.90;3.40;;;;;;;;;;5073620;28;20480;-80
2022/01/30 12:51:32;;;;;;;10.10;3.30;;;;;;;;;;5074575;28;20793;-79
2022/01/30 12:53:59;;;;;;;9.60;3.10;;;;;;;;;;5074738;28;20456;-79
2022/01/30 12:56:28;;;;;;;12.40;3.40;;;;;;;;;;5074036;28;20448;-79
2022/01/30 12:58:58;;;;;;;6.23;3.67;;;;;;;;;;5074272;28;20942;-79
2022/01/30 13:01:26;;;;;;;8.77;3.30;;;;;;;;;;5074189;28;20449;-79
2022/01/30 13:04:02;;;;;;;11.27;3.57;;;;;;;;;;5073847;28;20552;-77
2022/01/30 13:06:33;;;;;;;7.70;3.50;;;;;;;;;;5074401;28;20441;-78
2022/01/30 13:09:00;;;;;;;7.13;4.40;;;;;;;;;;5074389;28;20488;-80
2022/01/30 13:11:28;;;;;;;4.30;2.53;;;;;;;;;;5074172;28;20437;-79
2022/01/30 13:13:57;;;;;;;5.87;3.30;;;;;;;;;;5075055;28;20491;-77
2022/01/30 13:16:41;;;;;;;12.47;3.83;;;;;;;;;;5074114;28;20437;-78
2022/01/30 13:19:10;;;;;;;8.63;3.13;;;;;;;;;;5075285;28;20457;-78
2022/01/30 13:21:38;;;;;;;6.50;3.43;;;;;;;;;;5076233;28;20456;-77
2022/01/30 13:24:06;;;;;;;10.60;4.07;;;;;;;;;;5075031;28;20451;-78
2022/01/30 13:26:38;;;;;;;7.00;3.30;;;;;;;;;;5074465;28;20640;-79
2022/01/30 13:29:13;;;;;;;8.53;3.27;;;;;;;;;;5074090;28;20473;-77
2022/01/30 13:31:41;;;;;;;11.53;4.17;;;;;;;;;;5074650;28;20444;-78
2022/01/30 13:34:16;;;;;;;5.30;3.00;;;;;;;;;;5073091;28;20449;-79
2022/01/30 13:36:52;;;;;;;7.17;3.10;;;;;;;;;;5074511;28;20460;-80
2022/01/30 13:39:25;;;;;;;5.27;3.50;;;;;;;;;;5075012;28;21063;-79
2022/01/30 13:42:25;;;;;;;7.53;3.53;;;;;;;;;;5074250;28;20447;-78
2022/01/30 13:44:52;;;;;;;5.10;3.20;;;;;;;;;;5074227;28;21049;-77
2022/01/30 13:47:19;;;;;;;10.63;3.57;;;;;;;;;;5075126;28;20456;-78
2022/01/30 13:49:49;;;;;;;6.30;3.20;;;;;;;;;;5074014;28;20487;-77
2022/01/30 13:52:16;;;;;;;5.83;2.70;;;;;;;;;;5074468;28;20449;-77
2022/01/30 13:54:43;;;;;;;8.63;3.50;;;;;;;;;;5073338;28;20986;-80
2022/01/30 13:57:12;;;;;;;5.00;3.00;;;;;;;;;;5073565;28;20445;-79
2022/01/30 13:59:39;;;;;;;15.20;3.20;;;;;;;;;;5074015;28;20937;-78
2022/01/30 14:02:07;;;;;;;7.77;3.07;;;;;;;;;;5074072;28;20449;-78
2022/01/30 14:04:35;;;;;;;7.70;3.90;;;;;;;;;;5059906;28;20474;-77
2022/01/30 14:07:02;;;;;;;7.00;3.10;;;;;;;;;;5054066;28;20442;-80
2022/01/30 14:09:42;;;;;;;5.50;3.20;;;;;;;;;;5053783;28;20985;-79
2022/01/30 14:12:12;;;;;;;8.93;3.10;;;;;;;;;;5054243;28;20532;-79
2022/01/30 14:14:40;;;;;;;5.80;2.93;;;;;;;;;;5053271;28;20434;-79
2022/01/30 14:17:10;;;;;;;7.73;3.40;;;;;;;;;;5054213;28;20430;-78
2022/01/30 14:19:48;;;;;;;9.33;3.30;;;;;;;;;;5053076;28;20462;-79
2022/01/30 14:22:18;;;;;;;5.80;2.70;;;;;;;;;;5052691;28;20434;-78
2022/01/30 14:24:50;;;;;;;6.07;3.37;;;;;;;;;;5053993;28;20488;-80
2022/01/30 14:27:17;;;;;;;9.53;3.10;;;;;;;;;;5052821;28;20446;-78
2022/01/30 14:29:46;;;;;;;7.70;3.73;;;;;;;;;;5053732;28;20569;-78
2022/01/30 14:32:13;;;;;;;3.53;2.50;;;;;;;;;;5052785;28;20905;-79
2022/01/30 14:34:40;;;;;;;5.93;2.87;;;;;;;;;;5052039;28;20488;-79
2022/01/30 14:37:09;;;;;;;7.73;3.07;;;;;;;;;;5053553;28;20458;-79
2022/01/30 14:39:37;;;;;;;12.87;3.20;;;;;;;;;;5052085;28;20516;-77
2022/01/30 14:42:05;;;;;;;11.67;4.00;;;;;;;;;;5051790;28;20426;-78
2022/01/30 14:44:33;;;;;;;4.73;3.10;;;;;;;;;;5051823;28;20437;-78
2022/01/30 14:47:01;;;;;;;7.97;3.33;;;;;;;;;;5052209;28;20933;-78
2022/01/30 14:49:28;;;;;;;6.53;2.80;;;;;;;;;;5052630;28;20465;-78
2022/01/30 14:51:55;;;;;;;9.13;3.70;;;;;;;;;;5052503;28;20446;-78
2022/01/30 14:54:22;;;;;;;9.50;3.03;;;;;;;;;;5053953;28;20499;-77
2022/01/30 14:56:50;;;;;;;7.80;3.03;;;;;;;;;;5053346;28;20438;-78
2022/01/30 14:59:17;;;;;;;7.80;3.27;;;;;;;;;;5052896;28;20465;-78
2022/01/30 15:01:44;;;;;;;7.43;2.93;;;;;;;;;;5053409;28;20465;-78
2022/01/30 15:04:12;;;;;;;8.83;2.70;;;;;;;;;;5064619;28;20437;-79
2022/01/30 15:06:39;;;;;;;9.80;3.17;;;;;;;;;;5071847;28;20499;-78
2022/01/30 15:09:06;;;;;;;5.10;2.70;;;;;;;;;;5072440;28;20465;-80
2022/01/30 15:11:34;;;;;;;7.73;3.93;;;;;;;;;;5072099;28;20436;-77
2022/01/30 15:14:02;;;;;;;5.00;3.20;;;;;;;;;;5071864;28;20448;-79
2022/01/30 15:16:40;;;;;;;9.80;3.10;;;;;;;;;;5073297;28;20445;-77
2022/01/30 15:19:08;;;;;;;7.70;3.40;;;;;;;;;;5071941;28;20956;-78
2022/01/30 15:21:36;;;;;;;6.83;3.40;;;;;;;;;;5072582;28;20445;-80